sensor_id;sensor_type;location;lat;lon;timestamp;P1;durP1;ratioP1;P2;durP2;ratioP2
36211;SDS011;22247;48.586;13.492;2022-09-09T00:03:38;11.30;;;5.80;;
36211;SDS011;22247;48.586;13.492;2022-09-09T00:09:02;11.25;;;5.75;;
36211;SDS011;22247;48.586;13.492;2022-09-09T00:17:36;11.35;;;6.07;;
36211;SDS011;22247;48.586;13.492;2022-09-09T00:22:47;11.10;;;5.50;;
36211;SDS011;22247;48.586;13.492;2022-09-09T00:25:24;9.63;;;5.25;;
36211;SDS011;22247;48.586;13.492;2022-09-09T00:27:56;10.23;;;5.50;;
36211;SDS011;22247;48.586;13.492;2022-09-09T00:30:31;15.80;;;5.93;;
36211;SDS011;22247;48.586;13.492;2022-09-09T00:33:09;11.90;;;5.93;;
36211;SDS011;22247;48.586;13.492;2022-09-09T00:35:41;12.05;;;5.88;;
36211;SDS011;22247;48.586;13.492;2022-09-09T00:41:02;12.48;;;5.97;;
36211;SDS011;22247;48.586;13.492;2022-09-09T00:43:35;10.70;;;5.50;;
36211;SDS011;22247;48.586;13.492;2022-09-09T00:46:27;9.88;;;4.80;;
36211;SDS011;22247;48.586;13.492;2022-09-09T01:05:47;16.90;;;6.88;;
36211;SDS011;22247;48.586;13.492;2022-09-09T01:11:03;21.77;;;6.82;;
36211;SDS011;22247;48.586;13.492;2022-09-09T01:13:30;15.35;;;7.30;;
36211;SDS011;22247;48.586;13.492;2022-09-09T01:16:03;12.07;;;5.97;;
36211;SDS011;22247;48.586;13.492;2022-09-09T01:18:33;15.63;;;5.93;;
36211;SDS011;22247;48.586;13.492;2022-09-09T01:26:37;6.82;;;4.32;;
36211;SDS011;22247;48.586;13.492;2022-09-09T01:29:09;11.55;;;5.63;;
36211;SDS011;22247;48.586;13.492;2022-09-09T01:31:39;7.13;;;4.70;;
36211;SDS011;22247;48.586;13.492;2022-09-09T01:34:33;6.90;;;4.40;;
36211;SDS011;22247;48.586;13.492;2022-09-09T01:37:09;9.85;;;4.43;;
36211;SDS011;22247;48.586;13.492;2022-09-09T01:39:37;8.38;;;5.43;;
36211;SDS011;22247;48.586;13.492;2022-09-09T01:42:07;11.40;;;6.35;;
36211;SDS011;22247;48.586;13.492;2022-09-09T01:44:36;12.73;;;6.35;;
36211;SDS011;22247;48.586;13.492;2022-09-09T01:47:05;12.30;;;5.90;;
36211;SDS011;22247;48.586;13.492;2022-09-09T01:49:34;7.93;;;4.90;;
36211;SDS011;22247;48.586;13.492;2022-09-09T01:52:01;10.27;;;5.05;;
36211;SDS011;22247;48.586;13.492;2022-09-09T01:54:28;10.90;;;5.25;;
36211;SDS011;22247;48.586;13.492;2022-09-09T01:59:48;7.43;;;3.40;;
36211;SDS011;22247;48.586;13.492;2022-09-09T02:05:47;8.73;;;4.90;;
36211;SDS011;22247;48.586;13.492;2022-09-09T02:08:20;7.07;;;4.13;;
36211;SDS011;22247;48.586;13.492;2022-09-09T02:13:31;9.15;;;5.20;;
36211;SDS011;22247;48.586;13.492;2022-09-09T02:16:42;10.57;;;6.20;;
36211;SDS011;22247;48.586;13.492;2022-09-09T02:19:00;10.65;;;5.03;;
36211;SDS011;22247;48.586;13.492;2022-09-09T02:21:29;10.05;;;5.82;;
36211;SDS011;22247;48.586;13.492;2022-09-09T02:24:00;7.00;;;4.65;;
36211;SDS011;22247;48.586;13.492;2022-09-09T02:26:32;8.07;;;4.65;;
36211;SDS011;22247;48.586;13.492;2022-09-09T02:29:11;11.25;;;5.63;;
36211;SDS011;22247;48.586;13.492;2022-09-09T02:31:41;10.15;;;5.35;;
36211;SDS011;22247;48.586;13.492;2022-09-09T02:34:08;13.32;;;4.72;;
36211;SDS011;22247;48.586;13.492;2022-09-09T02:36:39;10.63;;;4.25;;
36211;SDS011;22247;48.586;13.492;2022-09-09T02:39:08;8.05;;;4.57;;
36211;SDS011;22247;48.586;13.492;2022-09-09T02:41:40;9.50;;;4.15;;
36211;SDS011;22247;48.586;13.492;2022-09-09T02:44:13;9.77;;;5.55;;
36211;SDS011;22247;48.586;13.492;2022-09-09T02:49:44;13.25;;;4.70;;
36211;SDS011;22247;48.586;13.492;2022-09-09T02:58:20;7.10;;;3.58;;
36211;SDS011;22247;48.586;13.492;2022-09-09T03:00:47;11.52;;;3.50;;
36211;SDS011;22247;48.586;13.492;2022-09-09T03:03:15;5.40;;;3.00;;
36211;SDS011;22247;48.586;13.492;2022-09-09T03:05:42;4.65;;;3.20;;
36211;SDS011;22247;48.586;13.492;2022-09-09T03:08:11;9.15;;;4.32;;
36211;SDS011;22247;48.586;13.492;2022-09-09T03:10:39;11.35;;;4.65;;
36211;SDS011;22247;48.586;13.492;2022-09-09T03:13:07;18.92;;;8.45;;
36211;SDS011;22247;48.586;13.492;2022-09-09T03:15:40;19.92;;;8.20;;
36211;SDS011;22247;48.586;13.492;2022-09-09T03:18:05;19.60;;;6.63;;
36211;SDS011;22247;48.586;13.492;2022-09-09T03:20:33;14.15;;;6.30;;
36211;SDS011;22247;48.586;13.492;2022-09-09T03:23:01;12.32;;;5.90;;
36211;SDS011;22247;48.586;13.492;2022-09-09T03:25:27;12.52;;;6.40;;
36211;SDS011;22247;48.586;13.492;2022-09-09T03:27:54;22.92;;;11.50;;
36211;SDS011;22247;48.586;13.492;2022-09-09T03:30:26;31.58;;;12.40;;
36211;SDS011;22247;48.586;13.492;2022-09-09T03:32:52;22.35;;;10.63;;
36211;SDS011;22247;48.586;13.492;2022-09-09T03:35:21;21.73;;;9.98;;
36211;SDS011;22247;48.586;13.492;2022-09-09T03:37:46;23.50;;;11.07;;
36211;SDS011;22247;48.586;13.492;2022-09-09T03:40:14;27.92;;;12.27;;
36211;SDS011;22247;48.586;13.492;2022-09-09T03:42:40;25.48;;;11.48;;
36211;SDS011;22247;48.586;13.492;2022-09-09T03:45:07;65.05;;;14.38;;
36211;SDS011;22247;48.586;13.492;2022-09-09T03:47:35;35.58;;;13.50;;
36211;SDS011;22247;48.586;13.492;2022-09-09T03:50:01;37.08;;;14.48;;
36211;SDS011;22247;48.586;13.492;2022-09-09T03:52:34;26.90;;;12.80;;
36211;SDS011;22247;48.586;13.492;2022-09-09T03:55:00;30.98;;;12.45;;
36211;SDS011;22247;48.586;13.492;2022-09-09T03:57:26;20.65;;;10.18;;
36211;SDS011;22247;48.586;13.492;2022-09-09T03:59:57;24.20;;;12.05;;
36211;SDS011;22247;48.586;13.492;2022-09-09T04:02:25;22.08;;;10.10;;
36211;SDS011;22247;48.586;13.492;2022-09-09T04:04:54;20.67;;;10.27;;
36211;SDS011;22247;48.586;13.492;2022-09-09T04:07:22;20.20;;;10.40;;
36211;SDS011;22247;48.586;13.492;2022-09-09T04:09:47;23.60;;;9.50;;
36211;SDS011;22247;48.586;13.492;2022-09-09T04:12:15;26.45;;;10.65;;
36211;SDS011;22247;48.586;13.492;2022-09-09T04:14:43;16.25;;;8.07;;
36211;SDS011;22247;48.586;13.492;2022-09-09T04:17:11;17.45;;;9.30;;
36211;SDS011;22247;48.586;13.492;2022-09-09T04:19:37;17.63;;;8.45;;
36211;SDS011;22247;48.586;13.492;2022-09-09T04:22:03;17.58;;;8.95;;
36211;SDS011;22247;48.586;13.492;2022-09-09T04:24:30;15.90;;;8.10;;
36211;SDS011;22247;48.586;13.492;2022-09-09T04:27:00;15.27;;;8.05;;
36211;SDS011;22247;48.586;13.492;2022-09-09T04:29:25;16.10;;;9.02;;
36211;SDS011;22247;48.586;13.492;2022-09-09T04:31:53;21.23;;;10.50;;
36211;SDS011;22247;48.586;13.492;2022-09-09T04:34:19;17.88;;;9.27;;
36211;SDS011;22247;48.586;13.492;2022-09-09T04:36:46;14.68;;;7.88;;
36211;SDS011;22247;48.586;13.492;2022-09-09T04:39:13;18.25;;;9.45;;
36211;SDS011;22247;48.586;13.492;2022-09-09T04:41:39;19.00;;;10.38;;
36211;SDS011;22247;48.586;13.492;2022-09-09T04:44:11;15.10;;;9.32;;
36211;SDS011;22247;48.586;13.492;2022-09-09T04:46:36;17.90;;;8.80;;
36211;SDS011;22247;48.586;13.492;2022-09-09T04:49:06;19.38;;;9.48;;
36211;SDS011;22247;48.586;13.492;2022-09-09T04:51:34;14.45;;;7.45;;
36211;SDS011;22247;48.586;13.492;2022-09-09T04:54:02;17.50;;;9.65;;
36211;SDS011;22247;48.586;13.492;2022-09-09T04:56:28;16.50;;;9.15;;
36211;SDS011;22247;48.586;13.492;2022-09-09T04:58:55;13.45;;;9.20;;
36211;SDS011;22247;48.586;13.492;2022-09-09T05:01:24;16.48;;;8.35;;
36211;SDS011;22247;48.586;13.492;2022-09-09T05:03:50;13.25;;;7.57;;
36211;SDS011;22247;48.586;13.492;2022-09-09T05:06:21;15.38;;;8.40;;
36211;SDS011;22247;48.586;13.492;2022-09-09T05:08:49;20.77;;;9.48;;
36211;SDS011;22247;48.586;13.492;2022-09-09T05:13:45;17.67;;;10.27;;
36211;SDS011;22247;48.586;13.492;2022-09-09T05:16:15;14.90;;;7.85;;
36211;SDS011;22247;48.586;13.492;2022-09-09T05:18:41;13.95;;;7.50;;
36211;SDS011;22247;48.586;13.492;2022-09-09T05:21:08;12.98;;;6.22;;
36211;SDS011;22247;48.586;13.492;2022-09-09T05:23:37;12.13;;;6.57;;
36211;SDS011;22247;48.586;13.492;2022-09-09T05:26:03;12.60;;;7.15;;
36211;SDS011;22247;48.586;13.492;2022-09-09T05:28:33;10.80;;;6.72;;
36211;SDS011;22247;48.586;13.492;2022-09-09T05:31:04;11.65;;;7.03;;
36211;SDS011;22247;48.586;13.492;2022-09-09T05:33:33;10.70;;;7.15;;
36211;SDS011;22247;48.586;13.492;2022-09-09T05:36:14;13.05;;;6.97;;
36211;SDS011;22247;48.586;13.492;2022-09-09T05:38:51;10.68;;;6.70;;
36211;SDS011;22247;48.586;13.492;2022-09-09T05:41:36;10.05;;;6.47;;
36211;SDS011;22247;48.586;13.492;2022-09-09T05:44:02;11.55;;;7.50;;
36211;SDS011;22247;48.586;13.492;2022-09-09T05:46:31;13.50;;;7.68;;
36211;SDS011;22247;48.586;13.492;2022-09-09T05:49:01;12.55;;;6.35;;
36211;SDS011;22247;48.586;13.492;2022-09-09T05:51:30;9.32;;;5.45;;
36211;SDS011;22247;48.586;13.492;2022-09-09T05:53:56;10.27;;;5.90;;
36211;SDS011;22247;48.586;13.492;2022-09-09T05:56:26;13.00;;;6.85;;
36211;SDS011;22247;48.586;13.492;2022-09-09T05:58:55;9.50;;;6.22;;
36211;SDS011;22247;48.586;13.492;2022-09-09T06:03:49;8.93;;;5.75;;
36211;SDS011;22247;48.586;13.492;2022-09-09T06:06:22;9.83;;;6.33;;
36211;SDS011;22247;48.586;13.492;2022-09-09T06:08:52;8.93;;;5.30;;
36211;SDS011;22247;48.586;13.492;2022-09-09T06:13:57;8.23;;;5.22;;
36211;SDS011;22247;48.586;13.492;2022-09-09T06:16:26;12.38;;;5.18;;
36211;SDS011;22247;48.586;13.492;2022-09-09T06:18:53;10.13;;;5.88;;
36211;SDS011;22247;48.586;13.492;2022-09-09T06:23:49;7.25;;;4.80;;
36211;SDS011;22247;48.586;13.492;2022-09-09T06:28:47;8.50;;;5.15;;
36211;SDS011;22247;48.586;13.492;2022-09-09T06:31:15;9.20;;;5.20;;
36211;SDS011;22247;48.586;13.492;2022-09-09T06:33:42;10.43;;;4.82;;
36211;SDS011;22247;48.586;13.492;2022-09-09T06:36:15;5.78;;;4.35;;
36211;SDS011;22247;48.586;13.492;2022-09-09T06:38:47;7.03;;;4.70;;
36211;SDS011;22247;48.586;13.492;2022-09-09T06:41:13;7.13;;;5.38;;
36211;SDS011;22247;48.586;13.492;2022-09-09T06:43:40;8.05;;;4.40;;
36211;SDS011;22247;48.586;13.492;2022-09-09T06:48:39;9.07;;;5.43;;
36211;SDS011;22247;48.586;13.492;2022-09-09T06:53:34;8.75;;;5.43;;
36211;SDS011;22247;48.586;13.492;2022-09-09T06:58:39;6.28;;;3.88;;
36211;SDS011;22247;48.586;13.492;2022-09-09T07:01:12;4.93;;;4.20;;
36211;SDS011;22247;48.586;13.492;2022-09-09T07:03:39;5.53;;;3.78;;
36211;SDS011;22247;48.586;13.492;2022-09-09T07:06:08;4.28;;;2.97;;
36211;SDS011;22247;48.586;13.492;2022-09-09T07:08:40;7.93;;;3.78;;
36211;SDS011;22247;48.586;13.492;2022-09-09T07:11:07;7.18;;;4.35;;
36211;SDS011;22247;48.586;13.492;2022-09-09T07:13:33;5.60;;;3.95;;
36211;SDS011;22247;48.586;13.492;2022-09-09T07:16:06;6.97;;;4.10;;
36211;SDS011;22247;48.586;13.492;2022-09-09T07:18:38;7.40;;;4.00;;
36211;SDS011;22247;48.586;13.492;2022-09-09T07:21:07;6.00;;;3.90;;
36211;SDS011;22247;48.586;13.492;2022-09-09T07:23:37;5.97;;;3.90;;
36211;SDS011;22247;48.586;13.492;2022-09-09T07:26:09;6.97;;;3.35;;
36211;SDS011;22247;48.586;13.492;2022-09-09T07:28:35;7.55;;;3.83;;
36211;SDS011;22247;48.586;13.492;2022-09-09T07:31:02;4.40;;;3.30;;
36211;SDS011;22247;48.586;13.492;2022-09-09T07:33:31;6.93;;;4.38;;
36211;SDS011;22247;48.586;13.492;2022-09-09T07:36:03;5.10;;;4.25;;
36211;SDS011;22247;48.586;13.492;2022-09-09T07:38:29;6.05;;;3.90;;
36211;SDS011;22247;48.586;13.492;2022-09-09T07:41:02;5.75;;;3.80;;
36211;SDS011;22247;48.586;13.492;2022-09-09T07:43:42;6.13;;;3.50;;
36211;SDS011;22247;48.586;13.492;2022-09-09T07:46:12;8.02;;;3.90;;
36211;SDS011;22247;48.586;13.492;2022-09-09T07:48:44;5.72;;;3.85;;
36211;SDS011;22247;48.586;13.492;2022-09-09T07:51:14;6.90;;;3.15;;
36211;SDS011;22247;48.586;13.492;2022-09-09T07:53:44;3.90;;;2.83;;
36211;SDS011;22247;48.586;13.492;2022-09-09T07:56:13;7.00;;;4.22;;
36211;SDS011;22247;48.586;13.492;2022-09-09T07:58:46;8.13;;;4.40;;
36211;SDS011;22247;48.586;13.492;2022-09-09T08:01:16;10.85;;;4.82;;
36211;SDS011;22247;48.586;13.492;2022-09-09T08:03:43;6.50;;;3.95;;
36211;SDS011;22247;48.586;13.492;2022-09-09T08:06:12;6.57;;;4.22;;
36211;SDS011;22247;48.586;13.492;2022-09-09T08:08:41;5.55;;;3.65;;
36211;SDS011;22247;48.586;13.492;2022-09-09T08:11:10;6.07;;;3.75;;
36211;SDS011;22247;48.586;13.492;2022-09-09T08:13:37;5.75;;;3.08;;
36211;SDS011;22247;48.586;13.492;2022-09-09T08:16:07;5.60;;;3.28;;
36211;SDS011;22247;48.586;13.492;2022-09-09T08:18:33;5.70;;;3.67;;
36211;SDS011;22247;48.586;13.492;2022-09-09T08:21:12;4.80;;;2.88;;
36211;SDS011;22247;48.586;13.492;2022-09-09T08:23:47;6.43;;;3.25;;
36211;SDS011;22247;48.586;13.492;2022-09-09T08:29:14;4.47;;;2.33;;
36211;SDS011;22247;48.586;13.492;2022-09-09T08:31:44;3.30;;;2.13;;
36211;SDS011;22247;48.586;13.492;2022-09-09T08:34:12;3.78;;;2.58;;
36211;SDS011;22247;48.586;13.492;2022-09-09T08:36:44;6.38;;;2.53;;
36211;SDS011;22247;48.586;13.492;2022-09-09T08:39:11;4.40;;;1.92;;
36211;SDS011;22247;48.586;13.492;2022-09-09T08:57:52;3.25;;;1.27;;
36211;SDS011;22247;48.586;13.492;2022-09-09T09:00:22;6.47;;;1.97;;
36211;SDS011;22247;48.586;13.492;2022-09-09T09:03:06;2.97;;;1.50;;
36211;SDS011;22247;48.586;13.492;2022-09-09T09:11:03;3.63;;;1.33;;
36211;SDS011;22247;48.586;13.492;2022-09-09T09:16:02;3.70;;;1.17;;
36211;SDS011;22247;48.586;13.492;2022-09-09T09:18:38;2.53;;;0.98;;
36211;SDS011;22247;48.586;13.492;2022-09-09T09:21:12;2.70;;;1.17;;
36211;SDS011;22247;48.586;13.492;2022-09-09T09:23:42;2.70;;;0.90;;
36211;SDS011;22247;48.586;13.492;2022-09-09T09:26:16;3.55;;;1.17;;
36211;SDS011;22247;48.586;13.492;2022-09-09T09:28:47;3.30;;;0.90;;
36211;SDS011;22247;48.586;13.492;2022-09-09T09:31:14;2.70;;;1.48;;
36211;SDS011;22247;48.586;13.492;2022-09-09T09:33:43;3.55;;;1.17;;
36211;SDS011;22247;48.586;13.492;2022-09-09T09:36:15;1.90;;;1.10;;
36211;SDS011;22247;48.586;13.492;2022-09-09T09:38:54;2.72;;;0.77;;
36211;SDS011;22247;48.586;13.492;2022-09-09T09:41:30;3.67;;;0.95;;
36211;SDS011;22247;48.586;13.492;2022-09-09T09:44:03;2.15;;;0.80;;
36211;SDS011;22247;48.586;13.492;2022-09-09T09:46:30;2.10;;;1.10;;
36211;SDS011;22247;48.586;13.492;2022-09-09T09:49:00;2.60;;;0.80;;
36211;SDS011;22247;48.586;13.492;2022-09-09T09:51:30;1.90;;;0.60;;
36211;SDS011;22247;48.586;13.492;2022-09-09T09:56:56;2.50;;;0.80;;
36211;SDS011;22247;48.586;13.492;2022-09-09T09:59:43;2.53;;;0.80;;
36211;SDS011;22247;48.586;13.492;2022-09-09T10:02:15;7.78;;;1.30;;
36211;SDS011;22247;48.586;13.492;2022-09-09T10:04:48;1.73;;;0.70;;
36211;SDS011;22247;48.586;13.492;2022-09-09T10:07:18;3.40;;;0.93;;
36211;SDS011;22247;48.586;13.492;2022-09-09T10:09:47;7.43;;;2.05;;
36211;SDS011;22247;48.586;13.492;2022-09-09T10:38:42;1.77;;;1.15;;
36211;SDS011;22247;48.586;13.492;2022-09-09T10:53:02;4.55;;;1.30;;
36211;SDS011;22247;48.586;13.492;2022-09-09T10:58:12;2.60;;;1.38;;
36211;SDS011;22247;48.586;13.492;2022-09-09T11:00:45;2.78;;;1.55;;
36211;SDS011;22247;48.586;13.492;2022-09-09T11:03:21;4.72;;;1.17;;
36211;SDS011;22247;48.586;13.492;2022-09-09T11:05:57;3.17;;;1.25;;
36211;SDS011;22247;48.586;13.492;2022-09-09T11:08:29;4.30;;;1.58;;
36211;SDS011;22247;48.586;13.492;2022-09-09T11:11:04;5.57;;;0.90;;
36211;SDS011;22247;48.586;13.492;2022-09-09T11:13:57;3.05;;;0.85;;
36211;SDS011;22247;48.586;13.492;2022-09-09T11:21:49;2.78;;;0.95;;
36211;SDS011;22247;48.586;13.492;2022-09-09T11:27:13;2.75;;;1.00;;
36211;SDS011;22247;48.586;13.492;2022-09-09T11:29:44;1.90;;;0.90;;
36211;SDS011;22247;48.586;13.492;2022-09-09T11:40:23;2.53;;;1.05;;
36211;SDS011;22247;48.586;13.492;2022-09-09T11:43:03;2.60;;;1.38;;
36211;SDS011;22247;48.586;13.492;2022-09-09T11:45:40;8.68;;;2.83;;
36211;SDS011;22247;48.586;13.492;2022-09-09T11:48:22;4.93;;;1.83;;
36211;SDS011;22247;48.586;13.492;2022-09-09T11:51:02;4.45;;;2.03;;
36211;SDS011;22247;48.586;13.492;2022-09-09T11:53:28;6.15;;;1.67;;
36211;SDS011;22247;48.586;13.492;2022-09-09T11:56:07;2.75;;;1.20;;
36211;SDS011;22247;48.586;13.492;2022-09-09T11:58:41;3.15;;;1.25;;
36211;SDS011;22247;48.586;13.492;2022-09-09T12:01:28;6.85;;;1.67;;
36211;SDS011;22247;48.586;13.492;2022-09-09T12:04:11;3.60;;;1.33;;
36211;SDS011;22247;48.586;13.492;2022-09-09T12:09:30;2.67;;;1.60;;
36211;SDS011;22247;48.586;13.492;2022-09-09T12:12:38;1.42;;;0.70;;
36211;SDS011;22247;48.586;13.492;2022-09-09T12:17:47;4.32;;;0.95;;
36211;SDS011;22247;48.586;13.492;2022-09-09T12:30:26;2.13;;;0.65;;
36211;SDS011;22247;48.586;13.492;2022-09-09T12:33:08;1.45;;;0.70;;
36211;SDS011;22247;48.586;13.492;2022-09-09T12:35:44;6.85;;;1.30;;
36211;SDS011;22247;48.586;13.492;2022-09-09T12:38:21;2.92;;;0.93;;
36211;SDS011;22247;48.586;13.492;2022-09-09T12:41:05;1.50;;;0.82;;
36211;SDS011;22247;48.586;13.492;2022-09-09T12:43:32;1.42;;;0.88;;
36211;SDS011;22247;48.586;13.492;2022-09-09T12:45:59;2.50;;;0.77;;
36211;SDS011;22247;48.586;13.492;2022-09-09T12:48:30;2.90;;;0.60;;
36211;SDS011;22247;48.586;13.492;2022-09-09T12:50:59;2.30;;;0.80;;
36211;SDS011;22247;48.586;13.492;2022-09-09T12:56:03;2.45;;;0.88;;
36211;SDS011;22247;48.586;13.492;2022-09-09T12:58:33;2.35;;;0.73;;
36211;SDS011;22247;48.586;13.492;2022-09-09T13:01:01;3.47;;;0.80;;
36211;SDS011;22247;48.586;13.492;2022-09-09T13:03:30;1.92;;;0.70;;
36211;SDS011;22247;48.586;13.492;2022-09-09T13:06:11;1.45;;;0.60;;
36211;SDS011;22247;48.586;13.492;2022-09-09T13:08:39;1.92;;;0.50;;
36211;SDS011;22247;48.586;13.492;2022-09-09T13:11:16;6.00;;;0.65;;
36211;SDS011;22247;48.586;13.492;2022-09-09T13:13:54;2.10;;;0.60;;
36211;SDS011;22247;48.586;13.492;2022-09-09T13:19:02;0.93;;;0.40;;
36211;SDS011;22247;48.586;13.492;2022-09-09T13:21:37;3.13;;;0.40;;
36211;SDS011;22247;48.586;13.492;2022-09-09T13:24:21;0.73;;;0.30;;
36211;SDS011;22247;48.586;13.492;2022-09-09T13:27:02;1.92;;;0.65;;
36211;SDS011;22247;48.586;13.492;2022-09-09T13:29:30;2.28;;;0.38;;
36211;SDS011;22247;48.586;13.492;2022-09-09T13:34:49;0.65;;;0.28;;
36211;SDS011;22247;48.586;13.492;2022-09-09T13:37:28;0.63;;;0.22;;
36211;SDS011;22247;48.586;13.492;2022-09-09T13:40:06;2.72;;;0.20;;
36211;SDS011;22247;48.586;13.492;2022-09-09T13:42:41;0.77;;;0.20;;
36211;SDS011;22247;48.586;13.492;2022-09-09T13:45:14;1.60;;;0.30;;
36211;SDS011;22247;48.586;13.492;2022-09-09T13:47:45;1.38;;;0.38;;
36211;SDS011;22247;48.586;13.492;2022-09-09T13:50:26;2.05;;;0.47;;
36211;SDS011;22247;48.586;13.492;2022-09-09T13:52:57;2.47;;;0.50;;
36211;SDS011;22247;48.586;13.492;2022-09-09T13:55:26;2.90;;;0.40;;
36211;SDS011;22247;48.586;13.492;2022-09-09T14:00:23;0.80;;;0.40;;
36211;SDS011;22247;48.586;13.492;2022-09-09T14:02:50;2.60;;;0.50;;
36211;SDS011;22247;48.586;13.492;2022-09-09T14:05:18;1.25;;;0.30;;
36211;SDS011;22247;48.586;13.492;2022-09-09T14:07:45;1.20;;;0.47;;
36211;SDS011;22247;48.586;13.492;2022-09-09T14:10:14;9.48;;;1.42;;
36211;SDS011;22247;48.586;13.492;2022-09-09T14:12:40;4.25;;;0.70;;
36211;SDS011;22247;48.586;13.492;2022-09-09T14:15:07;2.35;;;0.30;;
36211;SDS011;22247;48.586;13.492;2022-09-09T14:17:34;0.47;;;0.30;;
36211;SDS011;22247;48.586;13.492;2022-09-09T14:20:01;1.98;;;0.30;;
36211;SDS011;22247;48.586;13.492;2022-09-09T14:22:36;1.25;;;0.20;;
36211;SDS011;22247;48.586;13.492;2022-09-09T14:25:04;0.60;;;0.20;;
36211;SDS011;22247;48.586;13.492;2022-09-09T14:27:32;1.33;;;0.40;;
36211;SDS011;22247;48.586;13.492;2022-09-09T14:29:58;0.90;;;0.20;;
36211;SDS011;22247;48.586;13.492;2022-09-09T14:32:25;1.27;;;0.20;;
36211;SDS011;22247;48.586;13.492;2022-09-09T14:34:54;2.38;;;0.30;;
36211;SDS011;22247;48.586;13.492;2022-09-09T14:37:19;4.05;;;0.20;;
36211;SDS011;22247;48.586;13.492;2022-09-09T14:39:45;1.27;;;0.20;;
36211;SDS011;22247;48.586;13.492;2022-09-09T14:42:12;0.85;;;0.77;;
36211;SDS011;22247;48.586;13.492;2022-09-09T14:44:41;0.57;;;0.30;;
36211;SDS011;22247;48.586;13.492;2022-09-09T14:47:07;1.38;;;0.30;;
36211;SDS011;22247;48.586;13.492;2022-09-09T14:49:34;1.08;;;0.20;;
36211;SDS011;22247;48.586;13.492;2022-09-09T14:52:00;1.33;;;0.30;;
36211;SDS011;22247;48.586;13.492;2022-09-09T14:54:28;1.38;;;0.30;;
36211;SDS011;22247;48.586;13.492;2022-09-09T14:56:54;2.95;;;0.85;;
36211;SDS011;22247;48.586;13.492;2022-09-09T14:59:19;0.75;;;0.30;;
36211;SDS011;22247;48.586;13.492;2022-09-09T15:01:45;0.40;;;0.20;;
36211;SDS011;22247;48.586;13.492;2022-09-09T15:04:11;0.85;;;0.30;;
36211;SDS011;22247;48.586;13.492;2022-09-09T15:06:41;1.05;;;0.50;;
36211;SDS011;22247;48.586;13.492;2022-09-09T15:09:09;3.42;;;0.30;;
36211;SDS011;22247;48.586;13.492;2022-09-09T15:11:35;1.50;;;0.30;;
36211;SDS011;22247;48.586;13.492;2022-09-09T15:14:03;1.17;;;0.47;;
36211;SDS011;22247;48.586;13.492;2022-09-09T15:16:29;2.05;;;0.20;;
36211;SDS011;22247;48.586;13.492;2022-09-09T15:18:57;2.72;;;0.75;;
36211;SDS011;22247;48.586;13.492;2022-09-09T15:21:25;2.03;;;0.30;;
36211;SDS011;22247;48.586;13.492;2022-09-09T15:23:54;5.38;;;1.30;;
36211;SDS011;22247;48.586;13.492;2022-09-09T15:26:23;3.15;;;0.52;;
36211;SDS011;22247;48.586;13.492;2022-09-09T15:31:25;2.42;;;0.50;;
36211;SDS011;22247;48.586;13.492;2022-09-09T15:34:02;0.80;;;0.50;;
36211;SDS011;22247;48.586;13.492;2022-09-09T15:36:33;3.30;;;0.47;;
36211;SDS011;22247;48.586;13.492;2022-09-09T15:39:00;2.08;;;0.38;;
36211;SDS011;22247;48.586;13.492;2022-09-09T15:41:27;1.70;;;0.32;;
36211;SDS011;22247;48.586;13.492;2022-09-09T15:43:56;2.28;;;0.40;;
36211;SDS011;22247;48.586;13.492;2022-09-09T15:46:24;1.42;;;0.50;;
36211;SDS011;22247;48.586;13.492;2022-09-09T15:48:51;1.75;;;0.30;;
36211;SDS011;22247;48.586;13.492;2022-09-09T15:51:21;1.23;;;0.32;;
36211;SDS011;22247;48.586;13.492;2022-09-09T15:53:49;1.63;;;0.50;;
36211;SDS011;22247;48.586;13.492;2022-09-09T15:56:26;3.35;;;0.52;;
36211;SDS011;22247;48.586;13.492;2022-09-09T15:58:56;1.35;;;0.50;;
36211;SDS011;22247;48.586;13.492;2022-09-09T16:01:22;1.52;;;0.40;;
36211;SDS011;22247;48.586;13.492;2022-09-09T16:03:49;0.90;;;0.40;;
36211;SDS011;22247;48.586;13.492;2022-09-09T16:06:19;6.28;;;0.40;;
36211;SDS011;22247;48.586;13.492;2022-09-09T16:08:47;4.13;;;0.63;;
36211;SDS011;22247;48.586;13.492;2022-09-09T16:11:21;3.47;;;0.70;;
36211;SDS011;22247;48.586;13.492;2022-09-09T16:13:51;2.22;;;0.60;;
36211;SDS011;22247;48.586;13.492;2022-09-09T16:16:21;2.45;;;0.70;;
36211;SDS011;22247;48.586;13.492;2022-09-09T16:18:54;1.48;;;0.60;;
36211;SDS011;22247;48.586;13.492;2022-09-09T16:21:32;1.13;;;0.50;;
36211;SDS011;22247;48.586;13.492;2022-09-09T16:24:01;1.10;;;0.65;;
36211;SDS011;22247;48.586;13.492;2022-09-09T16:26:30;3.63;;;0.50;;
36211;SDS011;22247;48.586;13.492;2022-09-09T16:28:57;1.25;;;0.43;;
36211;SDS011;22247;48.586;13.492;2022-09-09T16:31:24;0.90;;;0.50;;
36211;SDS011;22247;48.586;13.492;2022-09-09T16:33:51;0.55;;;0.32;;
36211;SDS011;22247;48.586;13.492;2022-09-09T16:36:24;1.95;;;0.50;;
36211;SDS011;22247;48.586;13.492;2022-09-09T16:41:19;1.00;;;0.40;;
36211;SDS011;22247;48.586;13.492;2022-09-09T16:43:51;1.65;;;0.40;;
36211;SDS011;22247;48.586;13.492;2022-09-09T16:46:37;1.98;;;0.40;;
36211;SDS011;22247;48.586;13.492;2022-09-09T16:49:05;1.92;;;0.40;;
36211;SDS011;22247;48.586;13.492;2022-09-09T16:51:33;2.40;;;0.50;;
36211;SDS011;22247;48.586;13.492;2022-09-09T16:54:04;1.25;;;0.55;;
36211;SDS011;22247;48.586;13.492;2022-09-09T16:56:37;2.00;;;0.45;;
36211;SDS011;22247;48.586;13.492;2022-09-09T16:59:07;4.70;;;1.15;;
36211;SDS011;22247;48.586;13.492;2022-09-09T17:01:37;0.97;;;0.40;;
36211;SDS011;22247;48.586;13.492;2022-09-09T17:04:08;1.53;;;0.50;;
36211;SDS011;22247;48.586;13.492;2022-09-09T17:06:38;1.15;;;0.50;;
36211;SDS011;22247;48.586;13.492;2022-09-09T17:09:07;1.95;;;0.60;;
36211;SDS011;22247;48.586;13.492;2022-09-09T17:11:36;2.50;;;0.57;;
36211;SDS011;22247;48.586;13.492;2022-09-09T17:14:03;4.65;;;0.50;;
36211;SDS011;22247;48.586;13.492;2022-09-09T17:16:33;0.68;;;0.40;;
36211;SDS011;22247;48.586;13.492;2022-09-09T17:19:02;4.00;;;0.40;;
36211;SDS011;22247;48.586;13.492;2022-09-09T17:23:57;1.15;;;0.40;;
36211;SDS011;22247;48.586;13.492;2022-09-09T17:26:28;1.98;;;0.60;;
36211;SDS011;22247;48.586;13.492;2022-09-09T17:28:56;0.88;;;0.40;;
36211;SDS011;22247;48.586;13.492;2022-09-09T17:31:23;5.22;;;0.50;;
36211;SDS011;22247;48.586;13.492;2022-09-09T17:33:54;3.25;;;0.60;;
36211;SDS011;22247;48.586;13.492;2022-09-09T17:36:25;1.10;;;0.57;;
36211;SDS011;22247;48.586;13.492;2022-09-09T17:38:53;1.58;;;0.70;;
36211;SDS011;22247;48.586;13.492;2022-09-09T17:41:21;1.75;;;0.60;;
36211;SDS011;22247;48.586;13.492;2022-09-09T17:43:49;2.28;;;0.60;;
36211;SDS011;22247;48.586;13.492;2022-09-09T17:46:23;1.30;;;0.80;;
36211;SDS011;22247;48.586;13.492;2022-09-09T17:49:00;2.97;;;0.70;;
36211;SDS011;22247;48.586;13.492;2022-09-09T17:51:31;2.72;;;0.90;;
36211;SDS011;22247;48.586;13.492;2022-09-09T17:54:03;3.78;;;1.17;;
36211;SDS011;22247;48.586;13.492;2022-09-09T17:56:32;5.20;;;1.05;;
36211;SDS011;22247;48.586;13.492;2022-09-09T17:58:59;4.28;;;1.05;;
36211;SDS011;22247;48.586;13.492;2022-09-09T18:01:29;7.88;;;1.08;;
36211;SDS011;22247;48.586;13.492;2022-09-09T18:03:56;3.97;;;0.77;;
36211;SDS011;22247;48.586;13.492;2022-09-09T18:06:27;2.78;;;0.52;;
36211;SDS011;22247;48.586;13.492;2022-09-09T18:08:58;2.38;;;0.50;;
36211;SDS011;22247;48.586;13.492;2022-09-09T18:11:35;2.10;;;0.80;;